createdAt,value
2018-06-29T00:01:42.496Z,24.50
2018-06-29T00:04:11.221Z,24.50
2018-06-29T00:16:25.275Z,24.50
2018-06-29T00:18:53.515Z,24.40
2018-06-29T00:21:22.466Z,24.40
2018-06-29T00:23:50.238Z,24.40
2018-06-29T00:26:18.489Z,24.40
2018-06-29T00:28:47.604Z,24.40
2018-06-29T00:31:17.519Z,24.40
2018-06-29T00:33:48.052Z,24.40
2018-06-29T00:36:16.429Z,24.40
2018-06-29T00:38:44.506Z,24.40
2018-06-29T00:41:14.492Z,24.40
2018-06-29T00:53:27.650Z,24.40
2018-06-29T00:55:55.684Z,24.30
2018-06-29T00:58:24.244Z,24.30
2018-06-29T01:00:54.166Z,24.30
2018-06-29T01:03:22.178Z,24.30
2018-06-29T01:05:50.526Z,24.30
2018-06-29T01:08:19.714Z,24.30
2018-06-29T01:10:48.084Z,24.30
2018-06-29T01:13:16.375Z,24.30
2018-06-29T01:15:44.068Z,24.20
2018-06-29T01:18:12.440Z,24.20
2018-06-29T01:20:40.993Z,24.20
2018-06-29T01:23:09.181Z,24.20
2018-06-29T01:25:37.803Z,24.20
2018-06-29T01:28:05.843Z,24.20
2018-06-29T01:40:19.853Z,24.20
2018-06-29T01:42:49.427Z,24.10
2018-06-29T01:45:18.447Z,24.10
2018-06-29T01:47:46.425Z,24.10
2018-06-29T01:50:14.459Z,24.10
2018-06-29T01:52:42.659Z,24.10
2018-06-29T02:04:55.992Z,24.10
2018-06-29T02:07:24.065Z,24.00
2018-06-29T02:09:52.055Z,24.00
2018-06-29T02:12:20.948Z,24.00
2018-06-29T02:14:49.274Z,24.00
2018-06-29T02:17:17.875Z,24.00
2018-06-29T02:19:46.151Z,24.00
2018-06-29T02:22:14.851Z,23.90
2018-06-29T02:24:46.775Z,23.90
2018-06-29T02:27:15.269Z,23.90
2018-06-29T02:29:45.092Z,23.90
2018-06-29T02:41:59.988Z,23.90
2018-06-29T02:44:28.084Z,23.80
2018-06-29T02:46:55.788Z,23.80
2018-06-29T02:49:25.124Z,23.80
2018-06-29T02:51:53.132Z,23.80
2018-06-29T02:54:20.987Z,23.80
2018-06-29T02:56:49.055Z,23.80
2018-06-29T02:59:18.973Z,23.70
2018-06-29T03:01:47.630Z,23.70
2018-06-29T03:04:17.136Z,23.70
2018-06-29T03:06:45.625Z,23.70
2018-06-29T03:09:13.356Z,23.70
2018-06-29T03:11:41.432Z,23.70
2018-06-29T03:14:09.869Z,23.70
2018-06-29T03:16:38.960Z,23.70
2018-06-29T03:19:08.683Z,23.70
2018-06-29T03:21:36.554Z,23.70
2018-06-29T03:24:05.204Z,23.70
2018-06-29T03:29:01.787Z,23.60
2018-06-29T03:31:29.818Z,23.60
2018-06-29T03:33:58.233Z,23.60
2018-06-29T03:36:25.965Z,23.60
2018-06-29T03:41:22.237Z,23.60
2018-06-29T03:43:51.535Z,23.60
2018-06-29T03:46:19.523Z,23.60
2018-06-29T03:48:48.169Z,23.60
2018-06-29T03:51:16.985Z,23.60
2018-06-29T03:53:44.951Z,23.50
2018-06-29T03:56:13.302Z,23.50
2018-06-29T03:58:42.285Z,23.50
2018-06-29T04:01:10.102Z,23.50
2018-06-29T04:03:39.341Z,23.50
2018-06-29T04:06:11.380Z,23.50
2018-06-29T04:08:39.761Z,23.50
2018-06-29T04:11:08.457Z,23.40
2018-06-29T04:13:36.545Z,23.40
2018-06-29T04:16:05.605Z,23.40
2018-06-29T04:18:33.563Z,23.40
2018-06-29T04:21:01.277Z,23.40
2018-06-29T04:23:29.988Z,23.40
2018-06-29T04:28:25.584Z,23.40
2018-06-29T04:30:57.675Z,23.40
2018-06-29T04:33:28.423Z,23.40
2018-06-29T04:45:41.845Z,23.40
2018-06-29T04:48:11.628Z,23.30
2018-06-29T04:50:40.655Z,23.20
2018-06-29T04:53:08.516Z,23.20
2018-06-29T04:55:36.502Z,23.20
2018-06-29T04:58:05.887Z,23.20
2018-06-29T05:00:34.359Z,23.20
2018-06-29T05:03:02.049Z,23.20
2018-06-29T05:05:30.611Z,23.20
2018-06-29T05:07:59.116Z,23.20
2018-06-29T05:10:26.942Z,23.20
2018-06-29T05:12:55.282Z,23.20
2018-06-29T05:15:23.319Z,23.20
2018-06-29T05:17:52.006Z,23.10
2018-06-29T05:20:20.097Z,23.10
2018-06-29T05:22:48.649Z,23.10
2018-06-29T05:25:17.960Z,23.10
2018-06-29T05:27:46.057Z,23.10
2018-06-29T05:30:14.692Z,23.10
2018-06-29T05:32:43.786Z,23.10
2018-06-29T05:48:06.887Z,23.10
2018-06-29T05:50:34.961Z,22.90
2018-06-29T05:53:03.355Z,22.90
2018-06-29T05:55:32.746Z,22.90
2018-06-29T05:58:01.603Z,22.90
2018-06-29T06:00:29.802Z,22.90
2018-06-29T06:12:43.168Z,22.90
2018-06-29T06:15:11.937Z,22.80
2018-06-29T06:17:40.006Z,22.80
2018-06-29T06:20:14.022Z,22.80
2018-06-29T06:32:24.992Z,22.70
2018-06-29T06:34:52.680Z,22.40
2018-06-29T06:37:20.494Z,22.40
2018-06-29T06:42:19.084Z,22.40
2018-06-29T06:44:48.909Z,22.50
2018-06-29T06:47:17.103Z,22.50
2018-06-29T06:49:45.817Z,22.50
2018-06-29T06:52:14.778Z,22.50
2018-06-29T07:04:27.878Z,22.60
2018-06-29T07:06:55.949Z,22.60
2018-06-29T07:09:28.236Z,22.60
2018-06-29T07:11:57.905Z,22.60
2018-06-29T07:14:27.423Z,22.60
2018-06-29T07:16:56.529Z,22.60
2018-06-29T07:19:25.293Z,22.70
2018-06-29T07:21:54.400Z,22.60
2018-06-29T07:24:23.457Z,22.60
2018-06-29T07:26:52.212Z,22.60
2018-06-29T07:29:20.007Z,22.60
2018-06-29T07:31:48.488Z,22.70
2018-06-29T07:34:16.834Z,22.70
2018-06-29T07:36:44.792Z,22.70
2018-06-29T07:39:13.814Z,22.70
2018-06-29T07:41:41.845Z,22.70
2018-06-29T07:44:09.646Z,22.70
2018-06-29T07:46:41.019Z,22.70
2018-06-29T07:49:10.066Z,22.70
2018-06-29T08:01:23.560Z,22.70
2018-06-29T08:03:52.432Z,22.60
2018-06-29T08:06:20.405Z,22.60
2018-06-29T08:08:49.389Z,22.60
2018-06-29T08:11:18.109Z,22.60
2018-06-29T08:13:46.075Z,22.60
2018-06-29T08:26:10.226Z,22.60
2018-06-29T08:28:37.897Z,22.60
2018-06-29T08:31:07.301Z,22.60
2018-06-29T08:33:34.995Z,22.60
2018-06-29T08:36:04.534Z,22.70
2018-06-29T08:38:32.272Z,22.70
2018-06-29T08:41:01.428Z,22.70
2018-06-29T08:43:29.671Z,22.70
2018-06-29T08:45:57.434Z,22.70
2018-06-29T08:48:25.282Z,22.70
2018-06-29T08:50:53.376Z,22.70
2018-06-29T09:06:16.717Z,22.70
2018-06-29T09:08:44.409Z,22.70
2018-06-29T09:11:13.409Z,22.70
2018-06-29T09:13:41.691Z,22.70
2018-06-29T09:16:09.926Z,22.60
2018-06-29T09:18:38.128Z,22.60
2018-06-29T09:21:06.516Z,22.60
2018-06-29T09:23:35.480Z,22.70
2018-06-29T09:26:03.556Z,22.70
2018-06-29T09:28:31.933Z,22.70
2018-06-29T09:30:59.631Z,22.70
2018-06-29T09:33:28.931Z,22.70
2018-06-29T09:35:56.966Z,22.70
2018-06-29T09:38:27.126Z,22.80
2018-06-29T09:40:56.372Z,22.80
2018-06-29T09:43:26.232Z,22.80
2018-06-29T09:55:40.037Z,22.80
2018-06-29T09:58:07.746Z,22.80
2018-06-29T10:00:35.773Z,22.80
2018-06-29T10:03:04.664Z,22.80
2018-06-29T10:05:34.159Z,22.80
2018-06-29T10:08:04.286Z,22.80
2018-06-29T10:10:32.097Z,22.80
2018-06-29T10:13:00.524Z,22.80
2018-06-29T10:15:28.570Z,22.80
2018-06-29T10:17:57.090Z,22.80
2018-06-29T10:20:25.578Z,22.80
2018-06-29T10:22:55.729Z,22.80
2018-06-29T10:25:26.437Z,22.80
2018-06-29T10:27:55.481Z,22.80
2018-06-29T10:30:23.468Z,22.80
2018-06-29T10:32:51.755Z,22.80
2018-06-29T10:35:21.074Z,22.80
2018-06-29T10:37:49.360Z,22.80
2018-06-29T10:40:17.534Z,22.80
2018-06-29T10:52:30.279Z,22.80
2018-06-29T10:57:28.705Z,22.90
2018-06-29T10:59:57.595Z,22.90
2018-06-29T11:02:25.772Z,22.90
2018-06-29T11:04:53.823Z,22.90
2018-06-29T11:07:22.477Z,22.90
2018-06-29T11:09:50.192Z,22.90
2018-06-29T11:12:18.351Z,22.90
2018-06-29T11:24:31.677Z,22.90
2018-06-29T11:27:00.049Z,22.90
2018-06-29T11:29:28.625Z,22.90
2018-06-29T11:31:58.120Z,22.90
2018-06-29T11:34:26.207Z,22.90
2018-06-29T11:36:55.043Z,22.90
2018-06-29T11:39:23.076Z,22.90
2018-06-29T11:51:36.248Z,22.90
2018-06-29T11:54:04.404Z,22.90
2018-06-29T11:56:33.642Z,22.90
2018-06-29T11:59:02.397Z,22.90
2018-06-29T12:01:30.434Z,22.90
2018-06-29T12:03:59.191Z,23.00
2018-06-29T12:06:27.524Z,23.00
2018-06-29T12:08:55.223Z,23.00
2018-06-29T12:11:24.510Z,23.00
2018-06-29T12:13:52.724Z,23.00
2018-06-29T12:16:21.273Z,23.00
2018-06-29T12:18:49.638Z,23.00
2018-06-29T12:21:17.855Z,23.00
2018-06-29T12:23:47.302Z,23.10
2018-06-29T12:26:15.189Z,23.10
2018-06-29T12:38:28.551Z,23.10
2018-06-29T12:50:42.784Z,23.00
2018-06-29T12:53:11.853Z,23.00
2018-06-29T12:55:40.707Z,23.00
2018-06-29T12:58:09.527Z,23.00
2018-06-29T13:00:37.244Z,23.10
2018-06-29T13:03:05.324Z,23.10
2018-06-29T13:05:33.875Z,23.10
2018-06-29T13:08:02.604Z,23.10
2018-06-29T13:10:30.703Z,23.10
2018-06-29T13:12:58.450Z,23.20
2018-06-29T13:15:27.272Z,23.20
2018-06-29T13:17:55.394Z,23.20
2018-06-29T13:20:24.436Z,23.20
2018-06-29T13:22:53.178Z,23.20
2018-06-29T13:25:22.841Z,23.30
2018-06-29T13:27:50.676Z,23.30
2018-06-29T13:30:19.765Z,23.30
2018-06-29T13:32:47.700Z,23.30
2018-06-29T13:35:15.551Z,23.30
2018-06-29T13:37:43.296Z,23.30
2018-06-29T13:40:14.413Z,23.30
2018-06-29T13:42:42.460Z,23.30
2018-06-29T13:45:10.554Z,23.30
2018-06-29T13:47:40.274Z,23.30
2018-06-29T13:50:08.320Z,23.40
2018-06-29T13:52:36.368Z,23.40
2018-06-29T14:04:49.385Z,23.40
2018-06-29T14:17:02.434Z,23.40
2018-06-29T14:29:15.578Z,23.40
2018-06-29T14:31:44.140Z,23.50
2018-06-29T14:34:12.798Z,23.50
2018-06-29T14:39:11.293Z,23.50
2018-06-29T14:41:39.507Z,23.50
2018-06-29T14:44:09.721Z,23.60
2018-06-29T14:56:18.562Z,23.60
2018-06-29T14:58:46.469Z,23.60
2018-06-29T15:01:14.584Z,23.60
2018-06-29T15:03:42.324Z,23.60
2018-06-29T15:06:10.053Z,23.70
2018-06-29T15:08:38.271Z,23.70
2018-06-29T15:11:06.507Z,23.70
2018-06-29T15:13:34.566Z,23.70
2018-06-29T15:16:02.297Z,23.70
2018-06-29T15:18:31.016Z,23.70
2018-06-29T15:21:03.012Z,23.80
2018-06-29T15:23:31.757Z,23.80
2018-06-29T15:26:00.575Z,23.80
2018-06-29T15:28:28.402Z,23.80
2018-06-29T15:30:56.130Z,23.80
2018-06-29T15:33:24.385Z,23.90
2018-06-29T15:35:52.392Z,23.90
2018-06-29T15:38:20.556Z,23.90
2018-06-29T15:40:48.987Z,23.90
2018-06-29T15:53:01.721Z,23.90
2018-06-29T15:55:29.846Z,24.00
2018-06-29T15:57:58.152Z,24.00
2018-06-29T16:00:27.233Z,24.00
2018-06-29T16:02:56.354Z,24.10
2018-06-29T16:05:24.994Z,24.10
2018-06-29T16:07:53.529Z,24.10
2018-06-29T16:10:26.487Z,24.10
2018-06-29T16:22:35.154Z,24.10
2018-06-29T16:25:04.602Z,24.20
2018-06-29T16:27:32.342Z,24.20
2018-06-29T16:30:00.645Z,24.20
2018-06-29T16:32:29.232Z,24.20
2018-06-29T16:35:00.556Z,24.20
2018-06-29T16:37:28.668Z,24.20
2018-06-29T16:39:58.467Z,24.30
2018-06-29T16:42:26.220Z,24.30
2018-06-29T16:44:54.312Z,24.30
2018-06-29T16:47:24.075Z,24.40
2018-06-29T16:49:52.294Z,24.40
2018-06-29T16:52:21.128Z,24.40
2018-06-29T16:57:16.918Z,24.50
2018-06-29T16:59:44.880Z,24.50
2018-06-29T17:11:53.534Z,24.60
2018-06-29T17:14:23.588Z,24.60
2018-06-29T17:16:52.205Z,24.60
2018-06-29T17:19:20.352Z,24.70
2018-06-29T17:21:49.144Z,24.70
2018-06-29T17:34:03.948Z,24.70
2018-06-29T17:36:32.250Z,24.80
2018-06-29T17:39:00.330Z,24.80
2018-06-29T17:41:28.904Z,24.80
2018-06-29T17:43:58.706Z,24.90
2018-06-29T17:46:27.122Z,24.90
2018-06-29T17:48:55.628Z,24.90
2018-06-29T18:01:09.479Z,25.00
2018-06-29T18:03:37.370Z,25.20
2018-06-29T18:06:05.109Z,25.20
2018-06-29T18:08:32.826Z,25.20
2018-06-29T18:11:01.686Z,25.20
2018-06-29T18:13:30.045Z,25.20
2018-06-29T18:15:57.839Z,25.20
2018-06-29T18:18:25.645Z,25.30
2018-06-29T18:20:53.755Z,25.30
2018-06-29T18:23:22.136Z,25.30
2018-06-29T18:25:50.224Z,25.30
2018-06-29T18:28:18.562Z,25.30
2018-06-29T18:30:47.181Z,25.30
2018-06-29T18:33:16.297Z,25.30
2018-06-29T18:35:45.553Z,25.30
2018-06-29T18:38:14.103Z,25.30
2018-06-29T18:40:41.837Z,25.30
2018-06-29T18:43:10.646Z,25.30
2018-06-29T18:45:38.652Z,25.30
2018-06-29T18:48:08.781Z,25.30
2018-06-29T18:50:37.575Z,25.30
2018-06-29T18:53:06.449Z,25.30
2018-06-29T18:55:34.444Z,25.40
2018-06-29T18:58:02.817Z,25.30
2018-06-29T19:10:16.427Z,25.30
2018-06-29T19:12:45.016Z,25.30
2018-06-29T19:15:15.569Z,25.30
2018-06-29T19:17:43.426Z,25.40
2018-06-29T19:20:12.556Z,25.40
2018-06-29T19:22:40.872Z,25.40
2018-06-29T19:25:09.458Z,25.40
2018-06-29T19:27:37.812Z,25.40
2018-06-29T19:30:06.631Z,25.40
2018-06-29T19:32:35.009Z,25.40
2018-06-29T19:35:04.041Z,25.40
2018-06-29T19:37:32.210Z,25.40
2018-06-29T19:39:59.916Z,25.40
2018-06-29T19:42:28.600Z,25.50
2018-06-29T19:44:56.570Z,25.50
2018-06-29T19:47:24.306Z,25.50
2018-06-29T19:49:53.357Z,25.50
2018-06-29T19:52:21.830Z,25.50
2018-06-29T19:54:50.810Z,25.50
2018-06-29T19:57:19.143Z,25.50
2018-06-29T19:59:47.095Z,25.50
2018-06-29T20:02:15.696Z,25.50
2018-06-29T20:04:43.721Z,25.50
2018-06-29T20:07:13.924Z,25.50
2018-06-29T20:09:41.644Z,25.50
2018-06-29T20:12:09.359Z,25.50
2018-06-29T20:14:37.367Z,25.50
2018-06-29T20:17:10.373Z,25.50
2018-06-29T20:19:39.440Z,25.50
2018-06-29T20:22:07.814Z,25.50
2018-06-29T20:24:36.316Z,25.50
2018-06-29T20:36:49.394Z,25.60
2018-06-29T20:39:18.689Z,25.60
2018-06-29T20:41:46.863Z,25.60
2018-06-29T20:44:14.592Z,25.50
2018-06-29T20:46:43.128Z,25.50
2018-06-29T20:49:10.977Z,25.50
2018-06-29T20:51:38.738Z,25.50
2018-06-29T20:54:06.900Z,25.50
2018-06-29T20:56:36.416Z,25.50
2018-06-29T20:59:05.031Z,25.50
2018-06-29T21:01:36.240Z,25.50
2018-06-29T21:13:50.798Z,25.50
2018-06-29T21:16:19.902Z,25.50
2018-06-29T21:18:49.277Z,25.50
2018-06-29T21:21:17.866Z,25.50
2018-06-29T21:23:46.047Z,25.50
2018-06-29T21:26:13.846Z,25.50
2018-06-29T21:28:42.440Z,25.50
2018-06-29T21:31:10.550Z,25.50
2018-06-29T21:33:39.339Z,25.50
2018-06-29T21:36:07.411Z,25.50
2018-06-29T21:38:36.846Z,25.50
2018-06-29T21:41:04.952Z,25.50
2018-06-29T21:43:32.954Z,25.50
2018-06-29T21:46:04.626Z,25.50
2018-06-29T21:48:32.998Z,25.50
2018-06-29T21:51:02.372Z,25.50
2018-06-29T22:03:12.995Z,25.50
2018-06-29T22:05:42.376Z,25.50
2018-06-29T22:08:10.562Z,25.50
2018-06-29T22:13:08.535Z,25.50
2018-06-29T22:15:36.756Z,25.50
2018-06-29T22:18:06.271Z,25.40
2018-06-29T22:20:35.380Z,25.40
2018-06-29T22:23:04.322Z,25.40
2018-06-29T22:28:01.206Z,25.40
2018-06-29T22:30:31.347Z,25.40
2018-06-29T22:32:59.773Z,25.40
2018-06-29T22:35:28.311Z,25.40
2018-06-29T22:37:56.399Z,25.40
2018-06-29T22:40:27.734Z,25.50
2018-06-29T22:42:55.679Z,25.40
2018-06-29T22:45:23.422Z,25.40
2018-06-29T22:47:51.422Z,25.40
2018-06-29T22:50:19.781Z,25.40
2018-06-29T22:52:47.536Z,25.40
2018-06-29T22:55:19.248Z,25.40
2018-06-29T23:07:32.541Z,25.40
2018-06-29T23:19:45.663Z,25.30
2018-06-29T23:22:13.921Z,25.20
2018-06-29T23:24:41.659Z,25.20
2018-06-29T23:27:10.217Z,25.10
2018-06-29T23:29:37.921Z,25.10
2018-06-29T23:32:05.987Z,25.10
2018-06-29T23:34:34.052Z,25.10
2018-06-29T23:37:02.450Z,25.10
2018-06-29T23:39:30.245Z,25.10
2018-06-29T23:41:58.273Z,25.00
2018-06-29T23:44:26.825Z,24.80
2018-06-29T23:46:54.861Z,24.50
2018-06-29T23:49:22.898Z,24.30
